sensor_id;sensor_type;location;lat;lon;timestamp;temperature;humidity
33831;DHT22;20137;48.834;8.732;2023-02-15T00:00:11;1.00;99.90
33831;DHT22;20137;48.834;8.732;2023-02-15T00:02:37;1.00;99.90
33831;DHT22;20137;48.834;8.732;2023-02-15T00:05:03;1.10;99.90
33831;DHT22;20137;48.834;8.732;2023-02-15T00:07:29;1.20;99.90
33831;DHT22;20137;48.834;8.732;2023-02-15T00:09:55;1.30;99.90
33831;DHT22;20137;48.834;8.732;2023-02-15T00:12:20;1.10;99.90
33831;DHT22;20137;48.834;8.732;2023-02-15T00:14:46;1.00;99.90
33831;DHT22;20137;48.834;8.732;2023-02-15T00:17:12;0.90;99.90
33831;DHT22;20137;48.834;8.732;2023-02-15T00:19:38;0.90;99.90
33831;DHT22;20137;48.834;8.732;2023-02-15T00:22:05;0.80;99.90
33831;DHT22;20137;48.834;8.732;2023-02-15T00:24:31;0.70;99.90
33831;DHT22;20137;48.834;8.732;2023-02-15T00:26:57;0.80;99.90
33831;DHT22;20137;48.834;8.732;2023-02-15T00:29:22;0.70;99.90
33831;DHT22;20137;48.834;8.732;2023-02-15T00:31:48;0.70;99.90
33831;DHT22;20137;48.834;8.732;2023-02-15T00:34:22;0.60;99.90
33831;DHT22;20137;48.834;8.732;2023-02-15T00:36:49;0.60;99.90
33831;DHT22;20137;48.834;8.732;2023-02-15T00:39:15;0.60;99.90
33831;DHT22;20137;48.834;8.732;2023-02-15T00:41:42;0.60;99.90
33831;DHT22;20137;48.834;8.732;2023-02-15T00:44:08;0.50;99.90
33831;DHT22;20137;48.834;8.732;2023-02-15T00:46:34;0.50;99.90
33831;DHT22;20137;48.834;8.732;2023-02-15T00:49:00;0.40;99.90
33831;DHT22;20137;48.834;8.732;2023-02-15T00:51:25;0.30;99.90
33831;DHT22;20137;48.834;8.732;2023-02-15T00:53:51;0.40;99.90
33831;DHT22;20137;48.834;8.732;2023-02-15T00:56:17;0.30;99.90
33831;DHT22;20137;48.834;8.732;2023-02-15T00:58:43;0.20;99.90
33831;DHT22;20137;48.834;8.732;2023-02-15T01:01:14;0.20;99.90
33831;DHT22;20137;48.834;8.732;2023-02-15T01:03:40;0.20;99.90
33831;DHT22;20137;48.834;8.732;2023-02-15T01:06:10;0.20;99.90
33831;DHT22;20137;48.834;8.732;2023-02-15T01:08:36;0.20;99.90
33831;DHT22;20137;48.834;8.732;2023-02-15T01:11:06;0.20;99.90
33831;DHT22;20137;48.834;8.732;2023-02-15T01:13:33;0.20;99.90
33831;DHT22;20137;48.834;8.732;2023-02-15T01:15:59;0.30;99.90
33831;DHT22;20137;48.834;8.732;2023-02-15T01:18:25;0.30;99.90
33831;DHT22;20137;48.834;8.732;2023-02-15T01:20:50;0.20;99.90
33831;DHT22;20137;48.834;8.732;2023-02-15T01:23:16;0.20;99.90
33831;DHT22;20137;48.834;8.732;2023-02-15T01:25:42;0.10;99.90
33831;DHT22;20137;48.834;8.732;2023-02-15T01:28:07;0.00;99.90
33831;DHT22;20137;48.834;8.732;2023-02-15T01:30:33;0.00;99.90
33831;DHT22;20137;48.834;8.732;2023-02-15T01:32:59;0.00;99.90
33831;DHT22;20137;48.834;8.732;2023-02-15T01:35:26;-0.10;99.90
33831;DHT22;20137;48.834;8.732;2023-02-15T01:37:52;-0.10;99.90
33831;DHT22;20137;48.834;8.732;2023-02-15T01:40:18;0.00;99.90
33831;DHT22;20137;48.834;8.732;2023-02-15T01:42:44;0.00;99.90
33831;DHT22;20137;48.834;8.732;2023-02-15T01:45:23;0.00;99.90
33831;DHT22;20137;48.834;8.732;2023-02-15T01:50:38;0.00;99.90
33831;DHT22;20137;48.834;8.732;2023-02-15T01:55:37;0.00;99.90
33831;DHT22;20137;48.834;8.732;2023-02-15T01:58:04;-0.10;99.90
33831;DHT22;20137;48.834;8.732;2023-02-15T02:00:30;-0.20;99.90
33831;DHT22;20137;48.834;8.732;2023-02-15T02:02:56;-0.30;99.90
33831;DHT22;20137;48.834;8.732;2023-02-15T02:05:23;-0.40;99.90
33831;DHT22;20137;48.834;8.732;2023-02-15T02:07:51;-0.40;99.90
33831;DHT22;20137;48.834;8.732;2023-02-15T02:10:21;-0.50;99.90
33831;DHT22;20137;48.834;8.732;2023-02-15T02:12:49;-0.60;99.90
33831;DHT22;20137;48.834;8.732;2023-02-15T02:15:16;-0.60;99.90
33831;DHT22;20137;48.834;8.732;2023-02-15T02:17:58;-0.70;99.90
33831;DHT22;20137;48.834;8.732;2023-02-15T02:32:06;-0.90;99.90
33831;DHT22;20137;48.834;8.732;2023-02-15T02:34:54;-0.90;99.90
33831;DHT22;20137;48.834;8.732;2023-02-15T02:37:28;-0.90;99.90
33831;DHT22;20137;48.834;8.732;2023-02-15T02:40:07;-0.90;99.90
33831;DHT22;20137;48.834;8.732;2023-02-15T02:45:13;-0.80;99.90
33831;DHT22;20137;48.834;8.732;2023-02-15T02:47:47;-0.80;99.90
33831;DHT22;20137;48.834;8.732;2023-02-15T02:50:27;-0.70;99.90
33831;DHT22;20137;48.834;8.732;2023-02-15T02:52:54;-0.70;99.90
33831;DHT22;20137;48.834;8.732;2023-02-15T03:00:57;-0.60;99.90
33831;DHT22;20137;48.834;8.732;2023-02-15T03:03:39;-0.50;99.90
33831;DHT22;20137;48.834;8.732;2023-02-15T03:06:12;-0.50;99.90
33831;DHT22;20137;48.834;8.732;2023-02-15T03:08:50;-0.50;99.90
33831;DHT22;20137;48.834;8.732;2023-02-15T03:11:17;-0.50;99.90
33831;DHT22;20137;48.834;8.732;2023-02-15T03:13:44;-0.30;99.90
33831;DHT22;20137;48.834;8.732;2023-02-15T03:16:12;-0.50;99.90
33831;DHT22;20137;48.834;8.732;2023-02-15T03:19:07;-0.60;99.90
33831;DHT22;20137;48.834;8.732;2023-02-15T03:24:13;-0.60;99.90
33831;DHT22;20137;48.834;8.732;2023-02-15T03:26:42;-0.70;99.90
33831;DHT22;20137;48.834;8.732;2023-02-15T03:29:09;-0.70;99.90
33831;DHT22;20137;48.834;8.732;2023-02-15T03:31:38;-0.80;99.90
33831;DHT22;20137;48.834;8.732;2023-02-15T03:34:09;-0.80;99.90
33831;DHT22;20137;48.834;8.732;2023-02-15T03:36:45;-0.80;99.90
33831;DHT22;20137;48.834;8.732;2023-02-15T03:42:18;-0.80;99.90
33831;DHT22;20137;48.834;8.732;2023-02-15T03:45:14;-0.80;99.90
33831;DHT22;20137;48.834;8.732;2023-02-15T03:47:46;-0.80;99.90
33831;DHT22;20137;48.834;8.732;2023-02-15T03:50:21;-0.80;99.90
33831;DHT22;20137;48.834;8.732;2023-02-15T03:53:10;-0.80;99.90
33831;DHT22;20137;48.834;8.732;2023-02-15T03:55:37;-0.70;99.90
33831;DHT22;20137;48.834;8.732;2023-02-15T03:58:03;-0.80;99.90
33831;DHT22;20137;48.834;8.732;2023-02-15T04:01:38;-0.70;99.90
33831;DHT22;20137;48.834;8.732;2023-02-15T04:04:36;-0.60;99.90
33831;DHT22;20137;48.834;8.732;2023-02-15T04:07:05;-0.50;99.90
33831;DHT22;20137;48.834;8.732;2023-02-15T04:09:31;-0.50;99.90
33831;DHT22;20137;48.834;8.732;2023-02-15T04:12:16;-0.40;99.90
33831;DHT22;20137;48.834;8.732;2023-02-15T04:14:41;-0.20;99.90
33831;DHT22;20137;48.834;8.732;2023-02-15T04:17:25;-0.20;99.90
33831;DHT22;20137;48.834;8.732;2023-02-15T04:19:51;-0.20;99.90
33831;DHT22;20137;48.834;8.732;2023-02-15T04:22:35;-0.10;99.90
33831;DHT22;20137;48.834;8.732;2023-02-15T04:25:19;0.00;99.90
33831;DHT22;20137;48.834;8.732;2023-02-15T04:27:48;0.00;99.90
33831;DHT22;20137;48.834;8.732;2023-02-15T04:30:16;0.00;99.90
33831;DHT22;20137;48.834;8.732;2023-02-15T04:32:42;0.00;99.90
33831;DHT22;20137;48.834;8.732;2023-02-15T04:35:08;-0.10;99.90
33831;DHT22;20137;48.834;8.732;2023-02-15T04:37:35;-0.20;99.90
33831;DHT22;20137;48.834;8.732;2023-02-15T04:40:01;-0.30;99.90
33831;DHT22;20137;48.834;8.732;2023-02-15T04:42:27;-0.40;99.90
33831;DHT22;20137;48.834;8.732;2023-02-15T04:44:53;-0.60;99.90
33831;DHT22;20137;48.834;8.732;2023-02-15T04:47:19;-0.70;99.90
33831;DHT22;20137;48.834;8.732;2023-02-15T04:49:45;-0.70;99.90
33831;DHT22;20137;48.834;8.732;2023-02-15T04:52:11;-0.80;99.90
33831;DHT22;20137;48.834;8.732;2023-02-15T04:54:36;-0.80;99.90
33831;DHT22;20137;48.834;8.732;2023-02-15T04:57:03;-0.80;99.90
33831;DHT22;20137;48.834;8.732;2023-02-15T04:59:29;-0.80;99.90
33831;DHT22;20137;48.834;8.732;2023-02-15T05:01:54;-0.90;99.90
33831;DHT22;20137;48.834;8.732;2023-02-15T05:04:20;-1.00;99.90
33831;DHT22;20137;48.834;8.732;2023-02-15T05:06:45;-1.00;99.90
33831;DHT22;20137;48.834;8.732;2023-02-15T05:09:12;-1.10;99.90
33831;DHT22;20137;48.834;8.732;2023-02-15T05:11:38;-1.10;99.90
33831;DHT22;20137;48.834;8.732;2023-02-15T05:14:04;-1.10;99.90
33831;DHT22;20137;48.834;8.732;2023-02-15T05:16:29;-1.10;99.90
33831;DHT22;20137;48.834;8.732;2023-02-15T05:18:55;-1.10;99.90
33831;DHT22;20137;48.834;8.732;2023-02-15T05:21:21;-1.20;99.90
33831;DHT22;20137;48.834;8.732;2023-02-15T05:23:46;-1.10;99.90
33831;DHT22;20137;48.834;8.732;2023-02-15T05:26:16;-1.20;99.90
33831;DHT22;20137;48.834;8.732;2023-02-15T05:29:00;-1.20;99.90
33831;DHT22;20137;48.834;8.732;2023-02-15T05:31:26;-1.20;99.90
33831;DHT22;20137;48.834;8.732;2023-02-15T05:33:51;-1.20;99.90
33831;DHT22;20137;48.834;8.732;2023-02-15T05:36:17;-1.10;99.90
33831;DHT22;20137;48.834;8.732;2023-02-15T05:38:43;-1.20;99.90
33831;DHT22;20137;48.834;8.732;2023-02-15T05:41:10;-1.20;99.90
33831;DHT22;20137;48.834;8.732;2023-02-15T05:43:36;-1.20;99.90
33831;DHT22;20137;48.834;8.732;2023-02-15T05:46:03;-1.20;99.90
33831;DHT22;20137;48.834;8.732;2023-02-15T05:48:28;-1.20;99.90
33831;DHT22;20137;48.834;8.732;2023-02-15T05:53:29;-1.20;99.90
33831;DHT22;20137;48.834;8.732;2023-02-15T05:55:55;-1.20;99.90
33831;DHT22;20137;48.834;8.732;2023-02-15T05:58:28;-1.20;99.90
33831;DHT22;20137;48.834;8.732;2023-02-15T06:00:54;-1.20;99.90
33831;DHT22;20137;48.834;8.732;2023-02-15T06:03:21;-1.10;99.90
33831;DHT22;20137;48.834;8.732;2023-02-15T06:05:47;-1.00;99.90
33831;DHT22;20137;48.834;8.732;2023-02-15T06:08:13;-1.10;99.90
33831;DHT22;20137;48.834;8.732;2023-02-15T06:10:38;-1.10;99.90
33831;DHT22;20137;48.834;8.732;2023-02-15T06:13:05;-1.10;99.90
33831;DHT22;20137;48.834;8.732;2023-02-15T06:15:31;-1.20;99.90
33831;DHT22;20137;48.834;8.732;2023-02-15T06:17:57;-1.20;99.90
33831;DHT22;20137;48.834;8.732;2023-02-15T06:20:22;-1.20;99.90
33831;DHT22;20137;48.834;8.732;2023-02-15T06:22:48;-1.20;99.90
33831;DHT22;20137;48.834;8.732;2023-02-15T06:25:13;-1.20;99.90
33831;DHT22;20137;48.834;8.732;2023-02-15T06:27:41;-1.30;99.90
33831;DHT22;20137;48.834;8.732;2023-02-15T06:30:08;-1.30;99.90
33831;DHT22;20137;48.834;8.732;2023-02-15T06:32:35;-1.30;99.90
33831;DHT22;20137;48.834;8.732;2023-02-15T06:35:00;-1.30;99.90
33831;DHT22;20137;48.834;8.732;2023-02-15T06:37:26;-1.30;99.90
33831;DHT22;20137;48.834;8.732;2023-02-15T06:39:52;-1.30;99.90
33831;DHT22;20137;48.834;8.732;2023-02-15T06:42:17;-1.30;99.90
33831;DHT22;20137;48.834;8.732;2023-02-15T06:44:44;-1.30;99.90
33831;DHT22;20137;48.834;8.732;2023-02-15T06:47:10;-1.30;99.90
33831;DHT22;20137;48.834;8.732;2023-02-15T06:49:37;-1.30;99.90
33831;DHT22;20137;48.834;8.732;2023-02-15T06:52:03;-1.30;99.90
33831;DHT22;20137;48.834;8.732;2023-02-15T06:54:29;-1.30;99.90
33831;DHT22;20137;48.834;8.732;2023-02-15T06:56:54;-1.30;99.90
33831;DHT22;20137;48.834;8.732;2023-02-15T06:59:20;-1.30;99.90
33831;DHT22;20137;48.834;8.732;2023-02-15T07:01:46;-1.20;99.90
33831;DHT22;20137;48.834;8.732;2023-02-15T07:04:11;-1.10;99.90
33831;DHT22;20137;48.834;8.732;2023-02-15T07:06:37;-1.00;99.90
33831;DHT22;20137;48.834;8.732;2023-02-15T07:09:03;-0.90;99.90
33831;DHT22;20137;48.834;8.732;2023-02-15T07:11:29;-0.80;99.90
33831;DHT22;20137;48.834;8.732;2023-02-15T07:14:13;-0.60;99.90
33831;DHT22;20137;48.834;8.732;2023-02-15T07:16:39;-0.30;99.90
33831;DHT22;20137;48.834;8.732;2023-02-15T07:19:05;-0.10;99.90
33831;DHT22;20137;48.834;8.732;2023-02-15T07:21:30;0.20;99.90
33831;DHT22;20137;48.834;8.732;2023-02-15T07:23:57;0.40;99.90
33831;DHT22;20137;48.834;8.732;2023-02-15T07:26:23;0.50;99.90
33831;DHT22;20137;48.834;8.732;2023-02-15T07:28:49;0.70;99.90
33831;DHT22;20137;48.834;8.732;2023-02-15T07:31:14;0.90;99.90
33831;DHT22;20137;48.834;8.732;2023-02-15T07:33:40;1.00;99.90
33831;DHT22;20137;48.834;8.732;2023-02-15T07:36:07;1.00;99.90
33831;DHT22;20137;48.834;8.732;2023-02-15T07:38:40;1.20;99.90
33831;DHT22;20137;48.834;8.732;2023-02-15T07:41:11;1.30;99.90
33831;DHT22;20137;48.834;8.732;2023-02-15T07:43:42;1.30;99.90
33831;DHT22;20137;48.834;8.732;2023-02-15T07:46:10;1.40;99.90
33831;DHT22;20137;48.834;8.732;2023-02-15T07:48:38;1.40;99.90
33831;DHT22;20137;48.834;8.732;2023-02-15T07:51:07;1.50;99.90
33831;DHT22;20137;48.834;8.732;2023-02-15T07:53:33;1.40;99.90
33831;DHT22;20137;48.834;8.732;2023-02-15T07:56:03;1.40;99.90
33831;DHT22;20137;48.834;8.732;2023-02-15T07:58:29;1.40;99.90
33831;DHT22;20137;48.834;8.732;2023-02-15T08:01:14;1.30;99.90
33831;DHT22;20137;48.834;8.732;2023-02-15T08:03:40;1.30;99.90
33831;DHT22;20137;48.834;8.732;2023-02-15T08:06:06;1.30;99.90
33831;DHT22;20137;48.834;8.732;2023-02-15T08:08:35;1.30;99.90
33831;DHT22;20137;48.834;8.732;2023-02-15T08:11:03;1.30;99.90
33831;DHT22;20137;48.834;8.732;2023-02-15T08:13:48;1.40;99.90
33831;DHT22;20137;48.834;8.732;2023-02-15T08:16:26;1.50;99.90
33831;DHT22;20137;48.834;8.732;2023-02-15T08:18:53;1.50;99.90
33831;DHT22;20137;48.834;8.732;2023-02-15T08:21:20;1.60;99.90
33831;DHT22;20137;48.834;8.732;2023-02-15T08:23:45;1.70;99.90
33831;DHT22;20137;48.834;8.732;2023-02-15T08:26:11;1.80;99.90
33831;DHT22;20137;48.834;8.732;2023-02-15T08:28:37;1.80;99.90
33831;DHT22;20137;48.834;8.732;2023-02-15T08:31:10;1.90;99.90
33831;DHT22;20137;48.834;8.732;2023-02-15T08:33:38;2.10;99.90
33831;DHT22;20137;48.834;8.732;2023-02-15T08:36:15;2.30;99.90
33831;DHT22;20137;48.834;8.732;2023-02-15T08:38:41;2.20;99.90
33831;DHT22;20137;48.834;8.732;2023-02-15T08:43:39;2.40;99.90
33831;DHT22;20137;48.834;8.732;2023-02-15T08:46:06;2.60;99.90
33831;DHT22;20137;48.834;8.732;2023-02-15T08:48:32;2.80;99.90
33831;DHT22;20137;48.834;8.732;2023-02-15T08:50:58;3.00;99.90
33831;DHT22;20137;48.834;8.732;2023-02-15T08:53:23;3.30;99.90
33831;DHT22;20137;48.834;8.732;2023-02-15T08:55:56;3.30;99.90
33831;DHT22;20137;48.834;8.732;2023-02-15T08:58:22;3.50;99.90
33831;DHT22;20137;48.834;8.732;2023-02-15T09:00:48;3.60;99.90
33831;DHT22;20137;48.834;8.732;2023-02-15T09:03:13;3.70;99.90
33831;DHT22;20137;48.834;8.732;2023-02-15T09:05:39;3.80;99.90
33831;DHT22;20137;48.834;8.732;2023-02-15T09:08:04;3.90;99.90
33831;DHT22;20137;48.834;8.732;2023-02-15T09:10:30;4.00;99.90
33831;DHT22;20137;48.834;8.732;2023-02-15T09:12:56;4.00;99.90
33831;DHT22;20137;48.834;8.732;2023-02-15T09:15:21;4.20;99.90
33831;DHT22;20137;48.834;8.732;2023-02-15T09:17:47;4.20;99.90
33831;DHT22;20137;48.834;8.732;2023-02-15T09:20:12;4.30;99.90
33831;DHT22;20137;48.834;8.732;2023-02-15T09:22:38;4.40;99.90
33831;DHT22;20137;48.834;8.732;2023-02-15T09:25:04;4.60;99.90
33831;DHT22;20137;48.834;8.732;2023-02-15T09:27:29;4.70;99.90
33831;DHT22;20137;48.834;8.732;2023-02-15T09:29:55;4.90;99.90
33831;DHT22;20137;48.834;8.732;2023-02-15T09:32:21;5.00;99.90
33831;DHT22;20137;48.834;8.732;2023-02-15T09:34:47;5.10;99.90
33831;DHT22;20137;48.834;8.732;2023-02-15T09:37:13;5.20;99.90
33831;DHT22;20137;48.834;8.732;2023-02-15T09:39:41;5.30;99.90
33831;DHT22;20137;48.834;8.732;2023-02-15T09:45:19;5.40;99.90
33831;DHT22;20137;48.834;8.732;2023-02-15T09:48:01;5.50;99.90
33831;DHT22;20137;48.834;8.732;2023-02-15T09:50:59;5.60;99.90
33831;DHT22;20137;48.834;8.732;2023-02-15T09:56:14;5.80;99.90
33831;DHT22;20137;48.834;8.732;2023-02-15T10:01:28;6.00;99.90
33831;DHT22;20137;48.834;8.732;2023-02-15T10:06:50;6.30;99.90
33831;DHT22;20137;48.834;8.732;2023-02-15T10:20:56;6.90;99.90
33831;DHT22;20137;48.834;8.732;2023-02-15T10:26:20;7.20;99.90
33831;DHT22;20137;48.834;8.732;2023-02-15T10:28:56;7.40;99.90
33831;DHT22;20137;48.834;8.732;2023-02-15T10:31:24;7.40;99.90
33831;DHT22;20137;48.834;8.732;2023-02-15T10:34:16;7.50;99.90
33831;DHT22;20137;48.834;8.732;2023-02-15T10:37:01;7.60;99.90
33831;DHT22;20137;48.834;8.732;2023-02-15T10:39:56;7.60;99.90
33831;DHT22;20137;48.834;8.732;2023-02-15T10:50:40;7.70;99.90
33831;DHT22;20137;48.834;8.732;2023-02-15T11:09:49;7.40;99.90
33831;DHT22;20137;48.834;8.732;2023-02-15T11:12:20;7.50;99.90
33831;DHT22;20137;48.834;8.732;2023-02-15T11:14:56;7.50;99.90
33831;DHT22;20137;48.834;8.732;2023-02-15T11:17:55;7.50;99.90
33831;DHT22;20137;48.834;8.732;2023-02-15T11:20:31;7.60;99.90
33831;DHT22;20137;48.834;8.732;2023-02-15T11:23:00;7.60;99.90
33831;DHT22;20137;48.834;8.732;2023-02-15T11:25:32;7.50;99.90
33831;DHT22;20137;48.834;8.732;2023-02-15T11:28:00;7.50;99.90
33831;DHT22;20137;48.834;8.732;2023-02-15T11:30:40;7.40;99.90
33831;DHT22;20137;48.834;8.732;2023-02-15T11:33:16;7.30;99.90
33831;DHT22;20137;48.834;8.732;2023-02-15T11:36:01;7.30;99.90
33831;DHT22;20137;48.834;8.732;2023-02-15T11:38:32;7.30;99.90
33831;DHT22;20137;48.834;8.732;2023-02-15T11:41:11;7.40;99.90
33831;DHT22;20137;48.834;8.732;2023-02-15T11:44:15;7.30;99.90
33831;DHT22;20137;48.834;8.732;2023-02-15T11:46:42;7.30;99.90
33831;DHT22;20137;48.834;8.732;2023-02-15T11:49:30;7.40;99.90
33831;DHT22;20137;48.834;8.732;2023-02-15T11:51:57;7.50;99.90
33831;DHT22;20137;48.834;8.732;2023-02-15T11:54:28;7.50;99.90
33831;DHT22;20137;48.834;8.732;2023-02-15T11:56:57;7.50;99.90
33831;DHT22;20137;48.834;8.732;2023-02-15T11:59:32;7.60;99.90
33831;DHT22;20137;48.834;8.732;2023-02-15T12:02:00;7.60;99.90
33831;DHT22;20137;48.834;8.732;2023-02-15T12:04:36;7.60;99.90
33831;DHT22;20137;48.834;8.732;2023-02-15T12:07:13;7.70;99.90
33831;DHT22;20137;48.834;8.732;2023-02-15T12:12:31;8.00;99.90
33831;DHT22;20137;48.834;8.732;2023-02-15T12:15:09;8.10;99.90
33831;DHT22;20137;48.834;8.732;2023-02-15T12:17:49;8.30;99.90
33831;DHT22;20137;48.834;8.732;2023-02-15T12:23:00;8.60;99.90
33831;DHT22;20137;48.834;8.732;2023-02-15T12:25:35;8.70;99.90
33831;DHT22;20137;48.834;8.732;2023-02-15T12:28:02;8.80;99.90
33831;DHT22;20137;48.834;8.732;2023-02-15T12:33:15;9.00;99.90
33831;DHT22;20137;48.834;8.732;2023-02-15T12:35:43;9.00;99.90
33831;DHT22;20137;48.834;8.732;2023-02-15T12:40:35;9.10;99.90
33831;DHT22;20137;48.834;8.732;2023-02-15T12:43:01;9.20;99.90
33831;DHT22;20137;48.834;8.732;2023-02-15T12:45:35;9.20;99.90
33831;DHT22;20137;48.834;8.732;2023-02-15T12:48:19;9.10;99.90
33831;DHT22;20137;48.834;8.732;2023-02-15T12:50:47;9.10;99.90
33831;DHT22;20137;48.834;8.732;2023-02-15T12:53:31;9.20;99.90
33831;DHT22;20137;48.834;8.732;2023-02-15T12:55:59;9.30;99.90
33831;DHT22;20137;48.834;8.732;2023-02-15T12:58:27;9.30;99.90
33831;DHT22;20137;48.834;8.732;2023-02-15T13:03:36;9.40;99.90
33831;DHT22;20137;48.834;8.732;2023-02-15T13:06:04;9.40;99.90
33831;DHT22;20137;48.834;8.732;2023-02-15T13:08:37;9.50;99.90
33831;DHT22;20137;48.834;8.732;2023-02-15T13:11:04;9.60;99.40
33831;DHT22;20137;48.834;8.732;2023-02-15T13:13:35;9.60;99.20
33831;DHT22;20137;48.834;8.732;2023-02-15T13:16:09;9.70;98.80
33831;DHT22;20137;48.834;8.732;2023-02-15T13:18:46;9.80;98.60
33831;DHT22;20137;48.834;8.732;2023-02-15T13:21:27;9.90;98.40
33831;DHT22;20137;48.834;8.732;2023-02-15T13:23:57;10.00;97.90
33831;DHT22;20137;48.834;8.732;2023-02-15T13:26:28;10.00;97.40
33831;DHT22;20137;48.834;8.732;2023-02-15T13:29:06;10.10;97.30
33831;DHT22;20137;48.834;8.732;2023-02-15T13:31:34;10.10;97.10
33831;DHT22;20137;48.834;8.732;2023-02-15T13:34:10;10.20;96.80
33831;DHT22;20137;48.834;8.732;2023-02-15T13:37:08;10.30;96.90
33831;DHT22;20137;48.834;8.732;2023-02-15T13:42:40;10.40;96.40
33831;DHT22;20137;48.834;8.732;2023-02-15T13:45:09;10.40;96.50
33831;DHT22;20137;48.834;8.732;2023-02-15T13:48:00;10.50;96.70
33831;DHT22;20137;48.834;8.732;2023-02-15T13:54:00;10.50;98.10
33831;DHT22;20137;48.834;8.732;2023-02-15T14:04:43;10.20;99.90
33831;DHT22;20137;48.834;8.732;2023-02-15T14:10:02;10.00;99.90
33831;DHT22;20137;48.834;8.732;2023-02-15T14:15:23;9.90;99.90
33831;DHT22;20137;48.834;8.732;2023-02-15T14:32:11;9.80;99.90
33831;DHT22;20137;48.834;8.732;2023-02-15T14:34:48;9.80;99.90
33831;DHT22;20137;48.834;8.732;2023-02-15T14:37:24;9.90;99.90
33831;DHT22;20137;48.834;8.732;2023-02-15T14:40:01;9.90;99.90
33831;DHT22;20137;48.834;8.732;2023-02-15T14:42:56;9.80;99.90
33831;DHT22;20137;48.834;8.732;2023-02-15T14:45:39;9.70;99.90
33831;DHT22;20137;48.834;8.732;2023-02-15T14:48:30;9.70;99.90
33831;DHT22;20137;48.834;8.732;2023-02-15T14:50:56;9.70;99.90
33831;DHT22;20137;48.834;8.732;2023-02-15T14:53:34;9.70;99.90
33831;DHT22;20137;48.834;8.732;2023-02-15T14:58:38;9.70;99.90
33831;DHT22;20137;48.834;8.732;2023-02-15T15:01:06;9.60;99.90
33831;DHT22;20137;48.834;8.732;2023-02-15T15:03:33;9.50;99.90
33831;DHT22;20137;48.834;8.732;2023-02-15T15:06:02;9.40;99.90
33831;DHT22;20137;48.834;8.732;2023-02-15T15:08:34;9.40;99.90
33831;DHT22;20137;48.834;8.732;2023-02-15T15:16:47;9.20;99.90
33831;DHT22;20137;48.834;8.732;2023-02-15T15:22:22;9.00;99.90
33831;DHT22;20137;48.834;8.732;2023-02-15T15:24:54;8.90;99.90
33831;DHT22;20137;48.834;8.732;2023-02-15T15:27:43;8.80;99.90
33831;DHT22;20137;48.834;8.732;2023-02-15T15:41:09;8.60;99.90
33831;DHT22;20137;48.834;8.732;2023-02-15T15:47:02;8.50;99.90
33831;DHT22;20137;48.834;8.732;2023-02-15T15:49:31;8.50;99.90
33831;DHT22;20137;48.834;8.732;2023-02-15T15:52:01;8.40;99.90
33831;DHT22;20137;48.834;8.732;2023-02-15T15:54:28;8.30;99.90
33831;DHT22;20137;48.834;8.732;2023-02-15T15:56:58;8.20;99.90
33831;DHT22;20137;48.834;8.732;2023-02-15T15:59:30;8.10;99.90
33831;DHT22;20137;48.834;8.732;2023-02-15T16:02:04;8.10;99.90
33831;DHT22;20137;48.834;8.732;2023-02-15T16:04:32;8.10;99.90
33831;DHT22;20137;48.834;8.732;2023-02-15T16:10:03;7.90;99.90
33831;DHT22;20137;48.834;8.732;2023-02-15T16:12:34;7.80;99.90
33831;DHT22;20137;48.834;8.732;2023-02-15T16:15:16;7.70;99.90
33831;DHT22;20137;48.834;8.732;2023-02-15T16:17:48;7.50;99.90
33831;DHT22;20137;48.834;8.732;2023-02-15T16:20:24;7.40;99.90
33831;DHT22;20137;48.834;8.732;2023-02-15T16:25:50;7.10;99.90
33831;DHT22;20137;48.834;8.732;2023-02-15T16:28:19;6.90;99.90
33831;DHT22;20137;48.834;8.732;2023-02-15T16:30:45;6.70;99.90
33831;DHT22;20137;48.834;8.732;2023-02-15T16:33:16;6.50;99.90
33831;DHT22;20137;48.834;8.732;2023-02-15T16:35:55;6.40;99.90
33831;DHT22;20137;48.834;8.732;2023-02-15T16:41:23;6.20;99.90
33831;DHT22;20137;48.834;8.732;2023-02-15T16:43:50;6.10;99.90
33831;DHT22;20137;48.834;8.732;2023-02-15T16:46:31;6.00;99.90
33831;DHT22;20137;48.834;8.732;2023-02-15T16:49:01;5.90;99.90
33831;DHT22;20137;48.834;8.732;2023-02-15T16:51:29;5.80;99.90
33831;DHT22;20137;48.834;8.732;2023-02-15T16:53:57;5.70;99.90
33831;DHT22;20137;48.834;8.732;2023-02-15T16:56:27;5.70;99.90
33831;DHT22;20137;48.834;8.732;2023-02-15T16:58:56;5.60;99.90
33831;DHT22;20137;48.834;8.732;2023-02-15T17:01:26;5.60;99.90
33831;DHT22;20137;48.834;8.732;2023-02-15T17:04:13;5.50;99.90
33831;DHT22;20137;48.834;8.732;2023-02-15T17:06:38;5.50;99.90
33831;DHT22;20137;48.834;8.732;2023-02-15T17:09:06;5.40;99.90
33831;DHT22;20137;48.834;8.732;2023-02-15T17:11:42;5.40;99.90
33831;DHT22;20137;48.834;8.732;2023-02-15T17:19:23;5.10;99.90
33831;DHT22;20137;48.834;8.732;2023-02-15T17:22:04;5.00;99.90
33831;DHT22;20137;48.834;8.732;2023-02-15T17:24:39;4.90;99.90
33831;DHT22;20137;48.834;8.732;2023-02-15T17:27:16;4.90;99.90
33831;DHT22;20137;48.834;8.732;2023-02-15T17:29:48;4.80;99.90
33831;DHT22;20137;48.834;8.732;2023-02-15T17:32:24;4.70;99.90
33831;DHT22;20137;48.834;8.732;2023-02-15T17:40:13;4.70;99.90
33831;DHT22;20137;48.834;8.732;2023-02-15T17:42:39;4.70;99.90
33831;DHT22;20137;48.834;8.732;2023-02-15T17:45:06;4.60;99.90
33831;DHT22;20137;48.834;8.732;2023-02-15T17:47:32;4.60;99.90
33831;DHT22;20137;48.834;8.732;2023-02-15T17:49:59;4.60;99.90
33831;DHT22;20137;48.834;8.732;2023-02-15T17:52:27;4.60;99.90
33831;DHT22;20137;48.834;8.732;2023-02-15T17:54:54;4.60;99.90
33831;DHT22;20137;48.834;8.732;2023-02-15T17:57:38;4.70;99.90
33831;DHT22;20137;48.834;8.732;2023-02-15T18:00:05;4.70;99.90
33831;DHT22;20137;48.834;8.732;2023-02-15T18:02:50;4.60;99.90
33831;DHT22;20137;48.834;8.732;2023-02-15T18:05:34;4.50;99.90
33831;DHT22;20137;48.834;8.732;2023-02-15T18:08:22;4.40;99.90
33831;DHT22;20137;48.834;8.732;2023-02-15T18:11:09;4.40;99.90
33831;DHT22;20137;48.834;8.732;2023-02-15T18:13:53;4.30;99.90
33831;DHT22;20137;48.834;8.732;2023-02-15T18:16:24;4.20;99.90
33831;DHT22;20137;48.834;8.732;2023-02-15T18:18:51;4.20;99.90
33831;DHT22;20137;48.834;8.732;2023-02-15T18:21:17;4.10;99.90
33831;DHT22;20137;48.834;8.732;2023-02-15T18:23:43;4.20;99.90
33831;DHT22;20137;48.834;8.732;2023-02-15T18:26:19;4.10;99.90
33831;DHT22;20137;48.834;8.732;2023-02-15T18:28:45;4.20;99.90
33831;DHT22;20137;48.834;8.732;2023-02-15T18:31:11;4.30;99.90
33831;DHT22;20137;48.834;8.732;2023-02-15T18:36:42;4.50;99.90
33831;DHT22;20137;48.834;8.732;2023-02-15T18:39:24;4.50;99.90
33831;DHT22;20137;48.834;8.732;2023-02-15T18:41:51;4.60;99.90
33831;DHT22;20137;48.834;8.732;2023-02-15T18:44:16;4.60;99.90
33831;DHT22;20137;48.834;8.732;2023-02-15T18:46:42;4.50;99.90
33831;DHT22;20137;48.834;8.732;2023-02-15T18:49:08;4.50;99.90
33831;DHT22;20137;48.834;8.732;2023-02-15T18:51:33;4.50;99.90
33831;DHT22;20137;48.834;8.732;2023-02-15T18:54:05;4.60;99.90
33831;DHT22;20137;48.834;8.732;2023-02-15T18:56:31;4.70;99.90
33831;DHT22;20137;48.834;8.732;2023-02-15T18:58:57;4.90;99.90
33831;DHT22;20137;48.834;8.732;2023-02-15T19:01:23;5.00;99.90
33831;DHT22;20137;48.834;8.732;2023-02-15T19:03:50;5.20;99.90